createdAt,value
2023-02-16T00:01:26.496Z,15.82
2023-02-16T00:03:55.897Z,16.05
2023-02-16T00:06:24.152Z,17.50
2023-02-16T00:08:55.654Z,17.13
2023-02-16T00:11:46.396Z,18.35
2023-02-16T00:14:15.592Z,17.45
2023-02-16T00:16:43.678Z,16.25
2023-02-16T00:19:21.746Z,18.15
2023-02-16T00:21:50.835Z,18.48
2023-02-16T00:24:20.251Z,16.48
2023-02-16T00:26:49.191Z,18.98
2023-02-16T00:29:21.267Z,17.35
2023-02-16T00:31:50.531Z,17.83
2023-02-16T00:34:30.625Z,16.63
2023-02-16T00:37:00.196Z,16.80
2023-02-16T00:39:29.353Z,19.05
2023-02-16T00:42:00.567Z,17.45
2023-02-16T00:44:33.098Z,18.10
2023-02-16T00:47:03.602Z,17.25
2023-02-16T00:49:31.572Z,17.17
2023-02-16T00:51:59.437Z,19.13
2023-02-16T00:54:27.320Z,20.83
2023-02-16T00:56:57.201Z,17.60
2023-02-16T00:59:25.394Z,19.75
2023-02-16T01:01:53.232Z,19.05
2023-02-16T01:04:24.581Z,18.77
2023-02-16T01:07:10.037Z,18.75
2023-02-16T01:09:55.778Z,17.30
2023-02-16T01:12:25.168Z,18.13
2023-02-16T01:14:55.129Z,17.30
2023-02-16T01:17:24.510Z,19.38
2023-02-16T01:19:54.572Z,17.42
2023-02-16T01:22:22.560Z,17.17
2023-02-16T01:24:50.400Z,17.08
2023-02-16T01:27:19.555Z,17.63
2023-02-16T01:29:48.982Z,17.90
2023-02-16T01:32:17.128Z,19.98
2023-02-16T01:34:45.033Z,19.17
2023-02-16T01:37:16.478Z,17.98
2023-02-16T01:39:45.271Z,17.50
2023-02-16T01:42:24.028Z,18.92
2023-02-16T01:44:57.083Z,18.65
2023-02-16T01:50:03.537Z,18.00
2023-02-16T01:52:35.769Z,17.85
2023-02-16T01:55:11.200Z,17.90
2023-02-16T01:57:44.607Z,20.15
2023-02-16T02:00:18.900Z,18.52
2023-02-16T02:02:50.570Z,20.30
2023-02-16T02:05:36.027Z,21.30
2023-02-16T02:08:25.072Z,23.85
2023-02-16T02:11:04.228Z,20.38
2023-02-16T02:13:39.500Z,22.83
2023-02-16T02:16:11.781Z,22.20
2023-02-16T02:18:40.006Z,21.48
2023-02-16T02:21:44.268Z,19.77
2023-02-16T02:24:54.906Z,19.98
2023-02-16T02:27:26.067Z,20.13
2023-02-16T02:30:11.001Z,21.65
2023-02-16T02:32:53.010Z,19.90
2023-02-16T02:35:34.118Z,19.10
2023-02-16T02:38:09.653Z,18.65
2023-02-16T02:40:48.346Z,20.45
2023-02-16T02:43:22.188Z,19.48
2023-02-16T02:45:55.108Z,20.80
2023-02-16T02:48:23.375Z,19.73
2023-02-16T02:51:12.539Z,19.60
2023-02-16T02:53:44.998Z,19.58
2023-02-16T02:56:34.184Z,18.73
2023-02-16T02:59:25.178Z,19.60
2023-02-16T03:01:57.511Z,17.77
2023-02-16T03:04:29.466Z,19.33
2023-02-16T03:06:59.610Z,19.65
2023-02-16T03:09:27.957Z,20.48
2023-02-16T03:12:15.658Z,19.73
2023-02-16T03:14:52.035Z,18.77
2023-02-16T03:17:41.822Z,19.20
2023-02-16T03:20:30.658Z,19.10
2023-02-16T03:23:16.892Z,20.10
2023-02-16T03:26:03.216Z,19.05
2023-02-16T03:28:51.992Z,20.80
2023-02-16T03:31:25.395Z,21.08
2023-02-16T03:33:54.776Z,20.30
2023-02-16T03:36:23.227Z,21.92
2023-02-16T03:38:51.336Z,19.98
2023-02-16T03:41:19.573Z,20.27
2023-02-16T03:43:47.353Z,19.42
2023-02-16T03:46:15.366Z,20.95
2023-02-16T03:48:44.633Z,20.48
2023-02-16T03:51:12.566Z,17.70
2023-02-16T03:53:40.381Z,20.83
2023-02-16T03:56:08.430Z,20.40
2023-02-16T03:58:36.320Z,19.83
2023-02-16T04:01:04.519Z,18.83
2023-02-16T04:03:32.636Z,20.70
2023-02-16T04:06:01.980Z,18.70
2023-02-16T04:08:29.972Z,19.70
2023-02-16T04:10:57.902Z,18.38
2023-02-16T04:13:24.872Z,18.85
2023-02-16T04:15:52.716Z,20.02
2023-02-16T04:18:20.654Z,19.73
2023-02-16T04:20:48.380Z,20.48
2023-02-16T04:23:17.585Z,19.17
2023-02-16T04:25:45.431Z,19.27
2023-02-16T04:28:13.299Z,19.70
2023-02-16T04:30:41.172Z,20.23
2023-02-16T04:33:09.277Z,22.17
2023-02-16T04:35:37.155Z,20.92
2023-02-16T04:38:05.073Z,20.73
2023-02-16T04:40:34.246Z,20.25
2023-02-16T04:43:02.105Z,20.63
2023-02-16T04:45:30.013Z,22.50
2023-02-16T04:47:57.866Z,20.27
2023-02-16T04:50:25.599Z,19.48
2023-02-16T04:52:53.429Z,22.23
2023-02-16T04:55:21.312Z,20.02
2023-02-16T04:57:50.577Z,23.05
2023-02-16T05:00:19.617Z,21.17
2023-02-16T05:02:47.744Z,23.27
2023-02-16T05:05:15.547Z,21.35
2023-02-16T05:07:43.509Z,23.10
2023-02-16T05:10:11.677Z,21.85
2023-02-16T05:12:57.036Z,21.83
2023-02-16T05:15:26.331Z,21.83
2023-02-16T05:17:54.096Z,21.70
2023-02-16T05:20:42.437Z,20.98
2023-02-16T05:23:10.254Z,20.63
2023-02-16T05:25:38.049Z,22.25
2023-02-16T05:28:06.188Z,21.67
2023-02-16T05:30:35.511Z,19.40
2023-02-16T05:33:03.492Z,21.40
2023-02-16T05:35:31.817Z,22.67
2023-02-16T05:37:59.646Z,22.67
2023-02-16T05:40:27.512Z,20.52
2023-02-16T05:42:55.905Z,20.58
2023-02-16T05:45:23.807Z,20.50
2023-02-16T05:47:55.976Z,22.38
2023-02-16T05:50:23.945Z,20.25
2023-02-16T05:52:51.765Z,24.30
2023-02-16T05:55:19.821Z,23.85
2023-02-16T05:57:47.735Z,22.60
2023-02-16T06:00:17.276Z,22.17
2023-02-16T06:02:47.085Z,20.45
2023-02-16T06:05:16.516Z,20.48
2023-02-16T06:07:46.742Z,21.60
2023-02-16T06:10:16.445Z,20.80
2023-02-16T06:12:45.000Z,24.48
2023-02-16T06:15:13.186Z,20.65
2023-02-16T06:17:40.997Z,20.58
2023-02-16T06:20:09.968Z,22.73
2023-02-16T06:22:39.059Z,23.63
2023-02-16T06:25:07.508Z,21.17
2023-02-16T06:27:35.408Z,24.45
2023-02-16T06:30:04.257Z,20.98
2023-02-16T06:32:33.539Z,20.42
2023-02-16T06:35:04.303Z,21.02
2023-02-16T06:37:32.115Z,24.02
2023-02-16T06:40:01.379Z,22.65
2023-02-16T06:42:29.184Z,22.38
2023-02-16T06:44:56.959Z,23.35
2023-02-16T06:47:24.875Z,21.05
2023-02-16T06:49:52.793Z,21.85
2023-02-16T06:52:20.857Z,18.75
2023-02-16T06:54:48.729Z,20.58
2023-02-16T06:57:17.958Z,21.60
2023-02-16T06:59:45.880Z,21.55
2023-02-16T07:02:13.854Z,21.58
2023-02-16T07:04:41.760Z,20.85
2023-02-16T07:07:09.725Z,22.38
2023-02-16T07:09:37.567Z,20.10
2023-02-16T07:12:07.216Z,20.30
2023-02-16T07:14:39.129Z,22.73
2023-02-16T07:17:10.131Z,21.45
2023-02-16T07:19:40.958Z,22.85
2023-02-16T07:22:09.121Z,21.80
2023-02-16T07:24:36.905Z,23.38
2023-02-16T07:27:05.442Z,22.65
2023-02-16T07:29:33.171Z,25.85
2023-02-16T07:32:03.088Z,21.55
2023-02-16T07:34:31.124Z,21.65
2023-02-16T07:36:59.507Z,20.05
2023-02-16T07:39:28.942Z,25.60
2023-02-16T07:41:56.960Z,22.42
2023-02-16T07:44:27.192Z,21.73
2023-02-16T07:46:54.949Z,23.02
2023-02-16T07:49:24.449Z,22.42
2023-02-16T07:51:52.344Z,22.00
2023-02-16T07:54:20.141Z,22.83
2023-02-16T07:56:48.033Z,23.42
2023-02-16T07:59:16.881Z,24.10
2023-02-16T08:01:44.715Z,23.33
2023-02-16T08:04:12.552Z,24.23
2023-02-16T08:06:41.783Z,22.10
2023-02-16T08:09:09.532Z,21.90
2023-02-16T08:11:37.358Z,21.30
2023-02-16T08:14:05.137Z,21.13
2023-02-16T08:16:33.007Z,23.10
2023-02-16T08:19:03.574Z,19.92
2023-02-16T08:21:33.606Z,22.67
2023-02-16T08:24:04.696Z,23.58
2023-02-16T08:26:36.761Z,21.02
2023-02-16T08:29:06.084Z,23.37
2023-02-16T08:31:36.604Z,22.05
2023-02-16T08:34:08.151Z,20.00
2023-02-16T08:36:38.524Z,20.75
2023-02-16T08:39:11.967Z,20.40
2023-02-16T08:41:40.147Z,22.23
2023-02-16T08:44:09.949Z,23.52
2023-02-16T08:46:41.043Z,22.40
2023-02-16T08:49:09.777Z,21.20
2023-02-16T08:51:41.509Z,19.30
2023-02-16T08:54:15.782Z,19.55
2023-02-16T08:56:46.106Z,21.42
2023-02-16T08:59:14.126Z,21.02
2023-02-16T09:01:41.933Z,21.00
2023-02-16T09:04:10.002Z,21.88
2023-02-16T09:06:39.312Z,20.63
2023-02-16T09:09:08.700Z,21.25
2023-02-16T09:11:38.464Z,22.90
2023-02-16T09:14:06.709Z,24.85
2023-02-16T09:16:35.439Z,21.95
2023-02-16T09:19:03.528Z,21.10
2023-02-16T09:21:33.390Z,22.17
2023-02-16T09:24:03.413Z,23.67
2023-02-16T09:26:33.740Z,21.88
2023-02-16T09:29:03.532Z,23.40
2023-02-16T09:31:34.254Z,20.83
2023-02-16T09:34:04.735Z,23.80
2023-02-16T09:36:32.968Z,21.55
2023-02-16T09:39:02.418Z,22.75
2023-02-16T09:41:44.215Z,21.70
2023-02-16T09:44:25.743Z,21.55
2023-02-16T09:46:57.832Z,22.23
2023-02-16T09:49:32.584Z,20.80
2023-02-16T09:52:07.202Z,20.17
2023-02-16T09:54:42.977Z,20.95
2023-02-16T09:57:20.853Z,18.80
2023-02-16T09:59:57.191Z,20.15
2023-02-16T10:02:39.113Z,17.45
2023-02-16T10:05:32.533Z,19.83
2023-02-16T10:10:47.995Z,17.95
2023-02-16T10:13:26.013Z,19.55
2023-02-16T10:15:58.515Z,20.88
2023-02-16T10:18:31.040Z,20.85
2023-02-16T10:21:03.672Z,21.02
2023-02-16T10:26:16.766Z,22.23
2023-02-16T10:28:48.406Z,17.15
2023-02-16T10:31:24.621Z,19.90
2023-02-16T10:34:05.379Z,18.83
2023-02-16T10:36:47.898Z,18.67
2023-02-16T10:39:22.244Z,22.48
2023-02-16T10:41:55.442Z,19.95
2023-02-16T10:44:28.119Z,22.38
2023-02-16T10:47:01.806Z,19.27
2023-02-16T10:49:32.262Z,18.48
2023-02-16T10:52:03.343Z,21.58
2023-02-16T10:54:33.791Z,21.05
2023-02-16T10:57:06.238Z,21.10
2023-02-16T10:59:39.103Z,21.20
2023-02-16T11:04:48.670Z,17.52
2023-02-16T11:07:18.747Z,21.88
2023-02-16T11:09:51.106Z,20.08
2023-02-16T11:12:26.852Z,19.50
2023-02-16T11:14:57.882Z,21.10
2023-02-16T11:17:28.100Z,21.80
2023-02-16T11:20:01.814Z,19.88
2023-02-16T11:22:37.023Z,20.00
2023-02-16T11:25:25.384Z,22.15
2023-02-16T11:27:56.037Z,22.88
2023-02-16T11:30:33.400Z,22.20
2023-02-16T11:33:05.590Z,18.80
2023-02-16T11:35:42.064Z,19.92
2023-02-16T11:38:27.140Z,19.67
2023-02-16T11:40:56.312Z,19.55
2023-02-16T11:43:29.502Z,21.00
2023-02-16T11:45:59.952Z,19.02
2023-02-16T11:48:31.486Z,20.48
2023-02-16T11:51:02.882Z,19.02
2023-02-16T11:53:33.003Z,21.42
2023-02-16T11:56:19.012Z,20.23
2023-02-16T11:59:03.253Z,19.20
2023-02-16T12:01:44.914Z,19.52
2023-02-16T12:04:23.418Z,19.52
2023-02-16T12:06:58.809Z,19.40
2023-02-16T12:09:33.772Z,21.85
2023-02-16T12:12:11.157Z,21.40
2023-02-16T12:14:48.568Z,21.63
2023-02-16T12:17:41.999Z,19.75
2023-02-16T12:22:48.561Z,18.20
2023-02-16T12:25:35.878Z,19.38
2023-02-16T12:28:13.419Z,19.45
2023-02-16T12:30:59.896Z,19.17
2023-02-16T12:33:40.086Z,18.05
2023-02-16T12:36:30.619Z,19.00
2023-02-16T12:39:10.124Z,21.42
2023-02-16T12:41:48.407Z,19.58
2023-02-16T12:44:22.052Z,19.88
2023-02-16T12:46:56.909Z,19.27
2023-02-16T12:49:29.458Z,18.10
2023-02-16T12:52:05.436Z,20.75
2023-02-16T12:54:40.150Z,19.65
2023-02-16T12:57:12.951Z,21.27
2023-02-16T12:59:47.071Z,17.90
2023-02-16T13:02:21.553Z,18.40
2023-02-16T13:04:57.037Z,20.38
2023-02-16T13:07:33.472Z,18.70
2023-02-16T13:10:05.831Z,19.23
2023-02-16T13:12:38.163Z,18.25
2023-02-16T13:15:14.347Z,21.05
2023-02-16T13:17:48.390Z,20.83
2023-02-16T13:20:20.012Z,19.73
2023-02-16T13:23:15.600Z,21.08
2023-02-16T13:26:17.904Z,21.00
2023-02-16T13:29:02.123Z,18.42
2023-02-16T13:31:53.554Z,18.63
2023-02-16T13:34:57.509Z,19.98
2023-02-16T13:37:42.229Z,17.98
2023-02-16T13:40:57.734Z,21.05
2023-02-16T13:43:33.902Z,19.85
2023-02-16T13:46:06.794Z,22.58
2023-02-16T13:48:40.868Z,21.17
2023-02-16T13:51:14.931Z,18.23
2023-02-16T13:53:52.421Z,19.42
2023-02-16T13:56:23.766Z,17.77
2023-02-16T13:58:54.025Z,17.23
2023-02-16T14:01:40.478Z,17.83
2023-02-16T14:04:14.583Z,17.63
2023-02-16T14:06:43.703Z,18.60
2023-02-16T14:09:34.704Z,17.67
2023-02-16T14:12:08.020Z,17.33
2023-02-16T14:14:45.186Z,17.40
2023-02-16T14:17:18.529Z,17.20
2023-02-16T14:19:54.576Z,16.48
2023-02-16T14:22:28.745Z,17.40
2023-02-16T14:24:59.754Z,18.92
2023-02-16T14:27:52.322Z,17.58
2023-02-16T14:30:29.068Z,20.03
2023-02-16T14:33:02.218Z,16.73
2023-02-16T14:35:36.675Z,16.05
2023-02-16T14:38:06.940Z,16.60
2023-02-16T14:40:46.352Z,15.85
2023-02-16T14:43:25.118Z,14.70
2023-02-16T14:46:23.433Z,14.20
2023-02-16T14:49:28.264Z,18.30
2023-02-16T14:52:38.861Z,16.30
2023-02-16T14:55:24.053Z,15.55
2023-02-16T14:57:58.377Z,16.90
2023-02-16T15:00:31.661Z,15.13
2023-02-16T15:03:08.615Z,14.45
2023-02-16T15:05:38.051Z,16.50
2023-02-16T15:08:13.132Z,15.85
2023-02-16T15:10:41.579Z,16.33
2023-02-16T15:13:09.782Z,15.40
2023-02-16T15:15:49.122Z,15.40
2023-02-16T15:18:27.555Z,15.27
2023-02-16T15:20:59.619Z,16.58
2023-02-16T15:23:31.692Z,15.23
2023-02-16T15:26:03.647Z,15.60
2023-02-16T15:28:36.208Z,15.55
2023-02-16T15:31:08.270Z,14.93
2023-02-16T15:33:41.475Z,17.30
2023-02-16T15:36:13.941Z,15.90
2023-02-16T15:38:55.532Z,15.43
2023-02-16T15:41:31.226Z,14.20
2023-02-16T15:44:02.787Z,16.45
2023-02-16T15:46:37.526Z,14.75
2023-02-16T15:49:19.268Z,16.00
2023-02-16T15:51:51.765Z,14.30
2023-02-16T15:54:27.128Z,16.17
2023-02-16T15:56:59.380Z,17.67
2023-02-16T15:59:35.910Z,21.53
2023-02-16T16:02:12.116Z,17.05
2023-02-16T16:04:43.769Z,13.02
2023-02-16T16:07:16.527Z,15.90
2023-02-16T16:09:48.539Z,17.70
2023-02-16T16:12:21.705Z,16.00
2023-02-16T16:14:54.712Z,20.05
2023-02-16T16:17:28.158Z,15.75
2023-02-16T16:20:00.167Z,14.45
2023-02-16T16:22:36.213Z,14.50
2023-02-16T16:25:32.610Z,14.13
2023-02-16T16:28:03.083Z,13.95
2023-02-16T16:30:35.772Z,14.45
2023-02-16T16:33:05.257Z,15.15
2023-02-16T16:35:42.729Z,13.40
2023-02-16T16:38:24.616Z,12.70
2023-02-16T16:40:54.898Z,12.63
2023-02-16T16:43:27.860Z,14.73
2023-02-16T16:45:59.075Z,13.52
2023-02-16T16:48:34.121Z,11.75
2023-02-16T16:51:13.781Z,11.40
2023-02-16T16:53:52.896Z,12.20
2023-02-16T16:56:21.914Z,14.27
2023-02-16T16:58:50.697Z,10.45
2023-02-16T17:01:22.042Z,12.27
2023-02-16T17:03:50.314Z,11.35
2023-02-16T17:06:23.517Z,12.63
2023-02-16T17:08:55.799Z,11.25
2023-02-16T17:11:28.789Z,11.00
2023-02-16T17:14:05.433Z,10.75
2023-02-16T17:16:45.416Z,10.02
2023-02-16T17:19:20.451Z,12.20
2023-02-16T17:21:51.878Z,10.00
2023-02-16T17:24:22.927Z,10.82
2023-02-16T17:26:51.108Z,10.77
2023-02-16T17:29:19.054Z,11.38
2023-02-16T17:31:48.841Z,14.27
2023-02-16T17:34:17.395Z,11.63
2023-02-16T17:36:45.415Z,13.27
2023-02-16T17:39:14.774Z,12.35
2023-02-16T17:41:42.728Z,12.43
2023-02-16T17:44:10.540Z,11.68
2023-02-16T17:46:38.431Z,12.38
2023-02-16T17:49:11.685Z,12.30
2023-02-16T17:51:42.135Z,12.63
2023-02-16T17:54:10.774Z,11.80
2023-02-16T17:56:41.739Z,13.90
2023-02-16T17:59:18.256Z,11.70
2023-02-16T18:01:46.766Z,10.40
2023-02-16T18:04:14.889Z,11.48
2023-02-16T18:06:42.957Z,11.30
2023-02-16T18:09:12.991Z,11.10
2023-02-16T18:11:42.636Z,9.23
2023-02-16T18:14:12.276Z,9.68
2023-02-16T18:16:40.894Z,8.98
2023-02-16T18:19:09.913Z,7.68
2023-02-16T18:21:38.824Z,6.18
2023-02-16T18:24:07.744Z,6.45
2023-02-16T18:26:35.964Z,5.25
2023-02-16T18:29:07.910Z,5.80
2023-02-16T18:31:35.968Z,6.70
2023-02-16T18:34:06.019Z,5.78
2023-02-16T18:36:34.115Z,6.25
2023-02-16T18:39:02.093Z,6.93
2023-02-16T18:41:30.009Z,5.97
2023-02-16T18:43:57.941Z,6.22
2023-02-16T18:46:27.624Z,6.40
2023-02-16T18:48:55.514Z,5.78
2023-02-16T18:51:25.931Z,7.13
2023-02-16T18:53:53.884Z,5.60
2023-02-16T18:56:23.996Z,5.95
2023-02-16T18:58:52.095Z,6.65
2023-02-16T19:01:33.578Z,7.43
2023-02-16T19:04:03.786Z,6.90
2023-02-16T19:06:34.508Z,6.70
2023-02-16T19:09:04.898Z,6.82
2023-02-16T19:11:33.800Z,6.93
2023-02-16T19:14:03.605Z,7.80
2023-02-16T19:16:33.119Z,7.88
2023-02-16T19:19:01.299Z,9.65
2023-02-16T19:21:31.711Z,8.10
2023-02-16T19:24:02.123Z,9.27
2023-02-16T19:26:32.955Z,8.82
2023-02-16T19:29:01.279Z,7.38
2023-02-16T19:31:31.227Z,8.52
2023-02-16T19:34:01.128Z,9.00
2023-02-16T19:36:32.058Z,6.68
2023-02-16T19:39:00.664Z,6.63
2023-02-16T19:41:31.475Z,7.88
2023-02-16T19:43:59.880Z,8.15
2023-02-16T19:46:28.194Z,6.78
2023-02-16T19:48:57.922Z,7.78
2023-02-16T19:51:28.072Z,7.93
2023-02-16T19:53:56.253Z,8.27
2023-02-16T19:56:26.610Z,7.15
2023-02-16T19:58:54.635Z,8.38
2023-02-16T20:01:25.065Z,7.85
2023-02-16T20:03:54.118Z,9.43
2023-02-16T20:06:24.062Z,8.05
2023-02-16T20:08:55.023Z,7.50
2023-02-16T20:11:24.963Z,8.40
2023-02-16T20:13:56.467Z,9.98
2023-02-16T20:16:26.318Z,8.25
2023-02-16T20:18:55.185Z,8.73
2023-02-16T20:21:25.530Z,7.85
2023-02-16T20:23:59.487Z,8.13
2023-02-16T20:26:29.461Z,8.65
2023-02-16T20:28:57.810Z,8.00
2023-02-16T20:31:28.442Z,9.18
2023-02-16T20:33:56.908Z,8.15
2023-02-16T20:36:24.899Z,8.05
2023-02-16T20:38:54.262Z,9.27
2023-02-16T20:41:23.505Z,9.38
2023-02-16T20:43:51.620Z,7.95
2023-02-16T20:46:20.500Z,9.98
2023-02-16T20:48:50.084Z,8.35
2023-02-16T20:51:18.806Z,11.77
2023-02-16T20:53:47.169Z,8.68
2023-02-16T20:56:20.525Z,8.65
2023-02-16T20:58:49.808Z,8.73
2023-02-16T21:01:21.435Z,8.38
2023-02-16T21:03:49.811Z,9.23
2023-02-16T21:06:17.939Z,9.88
2023-02-16T21:08:45.856Z,8.23
2023-02-16T21:11:13.969Z,9.98
2023-02-16T21:13:43.545Z,8.65
2023-02-16T21:16:11.934Z,8.77
2023-02-16T21:18:40.695Z,9.40
2023-02-16T21:21:09.598Z,7.55
2023-02-16T21:23:37.968Z,8.85
2023-02-16T21:26:06.921Z,9.65
2023-02-16T21:28:34.920Z,10.52
2023-02-16T21:31:06.380Z,9.00
2023-02-16T21:33:34.837Z,8.88
2023-02-16T21:36:07.289Z,9.50
2023-02-16T21:38:36.984Z,8.93
2023-02-16T21:41:23.773Z,8.25
2023-02-16T21:43:55.110Z,9.85
2023-02-16T21:46:24.667Z,8.55
2023-02-16T21:48:51.555Z,9.02
2023-02-16T21:51:21.735Z,10.13
2023-02-16T21:53:49.687Z,10.07
2023-02-16T21:56:33.807Z,9.77
2023-02-16T21:59:02.319Z,9.57
2023-02-16T22:01:34.080Z,9.23
2023-02-16T22:04:02.838Z,10.93
2023-02-16T22:06:33.219Z,9.70
2023-02-16T22:09:01.539Z,9.75
2023-02-16T22:11:29.464Z,9.55
2023-02-16T22:13:58.718Z,9.27
2023-02-16T22:16:28.462Z,9.23
2023-02-16T22:19:03.394Z,9.93
2023-02-16T22:21:32.165Z,8.95
2023-02-16T22:24:00.741Z,9.10
2023-02-16T22:26:31.364Z,7.97
2023-02-16T22:28:59.597Z,10.05
2023-02-16T22:31:29.055Z,8.50
2023-02-16T22:33:57.907Z,10.00
2023-02-16T22:36:27.338Z,8.77
2023-02-16T22:38:55.785Z,10.95
2023-02-16T22:41:24.481Z,9.00
2023-02-16T22:43:54.276Z,9.57
2023-02-16T22:46:23.366Z,8.40
2023-02-16T22:48:51.876Z,9.43
2023-02-16T22:51:21.702Z,9.00
2023-02-16T22:53:50.811Z,10.38
2023-02-16T22:56:20.392Z,8.52
2023-02-16T22:58:48.567Z,8.88
2023-02-16T23:01:19.388Z,8.52
2023-02-16T23:03:47.978Z,7.80
2023-02-16T23:06:17.417Z,8.25
2023-02-16T23:08:46.800Z,8.70
2023-02-16T23:11:16.102Z,7.95
2023-02-16T23:13:43.997Z,9.35
2023-02-16T23:16:14.243Z,7.25
2023-02-16T23:18:43.453Z,9.60
2023-02-16T23:21:17.001Z,9.50
2023-02-16T23:23:45.296Z,7.10
2023-02-16T23:26:13.618Z,8.07
2023-02-16T23:28:43.884Z,8.15
2023-02-16T23:31:13.640Z,7.28
2023-02-16T23:33:41.698Z,9.05
2023-02-16T23:36:10.419Z,10.35
2023-02-16T23:38:38.572Z,8.50
2023-02-16T23:41:08.651Z,8.00
2023-02-16T23:43:37.115Z,7.93
2023-02-16T23:46:07.003Z,8.98
2023-02-16T23:48:35.088Z,8.20
2023-02-16T23:51:02.889Z,7.55
2023-02-16T23:53:31.037Z,9.02
2023-02-16T23:55:59.827Z,10.15
2023-02-16T23:58:28.484Z,8.13
